createdAt,value
2018-09-02T00:00:11.530Z,31.97
2018-09-02T00:02:40.764Z,149.23
2018-09-02T00:05:11.332Z,68.30
2018-09-02T00:07:40.957Z,14.20
2018-09-02T00:10:11.631Z,26.90
2018-09-02T00:12:44.110Z,12.60
2018-09-02T00:15:13.796Z,11.90
2018-09-02T00:17:46.404Z,34.20
2018-09-02T00:20:16.545Z,18.30
2018-09-02T00:22:45.491Z,12.30
2018-09-02T00:25:15.634Z,11.60
2018-09-02T00:27:53.499Z,11.03
2018-09-02T00:30:31.148Z,14.57
2018-09-02T00:33:01.813Z,13.47
2018-09-02T00:35:32.704Z,17.40
2018-09-02T00:38:06.426Z,23.43
2018-09-02T00:40:36.675Z,37.93
2018-09-02T00:43:08.140Z,31.37
2018-09-02T00:45:39.105Z,15.60
2018-09-02T00:48:10.565Z,14.30
2018-09-02T00:50:41.700Z,12.50
2018-09-02T00:53:11.055Z,25.23
2018-09-02T00:55:40.687Z,116.13
2018-09-02T00:58:10.821Z,72.10
2018-09-02T01:00:41.178Z,47.83
2018-09-02T01:03:11.234Z,122.60
2018-09-02T01:05:41.322Z,27.07
2018-09-02T01:08:11.295Z,17.30
2018-09-02T01:10:41.206Z,34.13
2018-09-02T01:13:15.928Z,74.93
2018-09-02T01:15:48.310Z,82.27
2018-09-02T01:18:18.408Z,150.00
2018-09-02T01:20:48.128Z,188.40
2018-09-02T01:23:21.289Z,202.17
2018-09-02T01:25:50.563Z,36.47
2018-09-02T01:28:20.930Z,28.07
2018-09-02T01:30:50.980Z,26.57
2018-09-02T01:33:23.111Z,83.77
2018-09-02T01:35:52.813Z,70.93
2018-09-02T01:38:22.152Z,112.50
2018-09-02T01:40:51.892Z,43.80
2018-09-02T01:43:27.642Z,13.10
2018-09-02T01:45:57.843Z,12.98
2018-09-02T01:48:28.069Z,19.07
2018-09-02T01:50:57.339Z,23.87
2018-09-02T01:53:27.922Z,108.27
2018-09-02T01:55:56.943Z,47.90
2018-09-02T01:58:26.143Z,16.77
2018-09-02T02:00:54.909Z,19.30
2018-09-02T02:03:26.267Z,22.63
2018-09-02T02:05:56.006Z,26.43
2018-09-02T02:08:25.578Z,22.13
2018-09-02T02:10:55.158Z,27.20
2018-09-02T02:13:27.269Z,13.50
2018-09-02T02:15:58.258Z,14.60
2018-09-02T02:18:27.930Z,14.70
2018-09-02T02:20:58.770Z,69.47
2018-09-02T02:23:29.601Z,34.73
2018-09-02T02:25:59.439Z,37.33
2018-09-02T02:28:29.310Z,29.13
2018-09-02T02:31:00.310Z,11.17
2018-09-02T02:33:30.851Z,15.60
2018-09-02T02:36:01.080Z,13.10
2018-09-02T02:38:32.588Z,11.77
2018-09-02T02:41:04.466Z,11.83
2018-09-02T02:43:34.910Z,63.20
2018-09-02T02:46:05.278Z,21.47
2018-09-02T02:48:34.669Z,40.40
2018-09-02T02:51:04.096Z,48.23
2018-09-02T02:53:34.908Z,13.63
2018-09-02T02:56:04.612Z,37.03
2018-09-02T02:58:35.083Z,41.40
2018-09-02T03:01:06.654Z,60.43
2018-09-02T03:03:36.770Z,53.90
2018-09-02T03:06:07.425Z,90.77
2018-09-02T03:08:37.012Z,148.13
2018-09-02T03:11:13.743Z,43.47
2018-09-02T03:13:43.051Z,112.70
2018-09-02T03:16:12.261Z,84.90
2018-09-02T03:18:42.915Z,55.87
2018-09-02T03:21:11.551Z,41.53
2018-09-02T03:23:45.203Z,27.63
2018-09-02T03:26:15.113Z,43.97
2018-09-02T03:28:46.405Z,51.40
2018-09-02T03:31:15.939Z,13.53
2018-09-02T03:33:46.136Z,82.87
2018-09-02T03:36:15.571Z,28.47
2018-09-02T03:38:46.743Z,27.17
2018-09-02T03:41:16.158Z,34.23
2018-09-02T03:43:44.708Z,88.70
2018-09-02T03:46:14.030Z,51.03
2018-09-02T03:48:43.638Z,52.87
2018-09-02T03:51:12.740Z,62.57
2018-09-02T03:53:42.156Z,99.10
2018-09-02T03:56:11.553Z,87.90
2018-09-02T03:58:42.209Z,85.23
2018-09-02T04:01:11.926Z,33.83
2018-09-02T04:03:40.545Z,83.20
2018-09-02T04:06:10.819Z,116.20
2018-09-02T04:08:40.485Z,62.40
2018-09-02T04:11:10.687Z,92.37
2018-09-02T04:13:39.728Z,52.27
2018-09-02T04:16:09.991Z,53.70
2018-09-02T04:18:39.394Z,66.40
2018-09-02T04:21:09.251Z,55.47
2018-09-02T04:23:39.001Z,94.47
2018-09-02T04:26:13.156Z,105.20
2018-09-02T04:28:42.362Z,93.60
2018-09-02T04:31:12.985Z,57.70
2018-09-02T04:33:43.548Z,57.83
2018-09-02T04:36:12.450Z,74.10
2018-09-02T04:38:42.470Z,31.33
2018-09-02T04:41:11.396Z,84.70
2018-09-02T04:43:40.775Z,47.23
2018-09-02T04:46:11.217Z,31.40
2018-09-02T04:48:40.549Z,80.50
2018-09-02T04:51:10.087Z,41.40
2018-09-02T04:53:38.617Z,23.77
2018-09-02T04:56:09.485Z,38.73
2018-09-02T04:58:40.582Z,49.83
2018-09-02T05:01:10.476Z,51.17
2018-09-02T05:03:40.955Z,44.40
2018-09-02T05:06:10.656Z,44.23
2018-09-02T05:08:40.632Z,56.93
2018-09-02T05:11:09.712Z,20.53
2018-09-02T05:13:40.505Z,35.15
2018-09-02T05:16:09.991Z,68.57
2018-09-02T05:18:39.908Z,49.17
2018-09-02T05:21:08.772Z,45.88
2018-09-02T05:23:38.032Z,32.03
2018-09-02T05:26:07.876Z,31.20
2018-09-02T05:28:36.538Z,52.97
2018-09-02T05:31:06.249Z,58.60
2018-09-02T05:33:35.489Z,77.87
2018-09-02T05:36:05.538Z,20.37
2018-09-02T05:38:34.478Z,31.33
2018-09-02T05:41:04.525Z,23.60
2018-09-02T05:43:33.918Z,46.50
2018-09-02T05:46:03.105Z,32.80
2018-09-02T05:48:32.260Z,22.00
2018-09-02T05:51:02.597Z,47.77
2018-09-02T05:53:35.598Z,40.63
2018-09-02T05:56:09.333Z,17.05
2018-09-02T05:58:39.149Z,33.53
2018-09-02T06:01:34.374Z,39.47
2018-09-02T06:04:05.512Z,41.37
2018-09-02T06:06:36.825Z,15.60
2018-09-02T06:09:11.218Z,17.87
2018-09-02T06:11:41.220Z,43.07
2018-09-02T06:14:13.239Z,15.47
2018-09-02T06:16:43.677Z,13.62
2018-09-02T06:19:13.647Z,21.33
2018-09-02T06:21:50.927Z,32.97
2018-09-02T06:24:22.288Z,13.43
2018-09-02T06:26:59.434Z,33.53
2018-09-02T06:29:29.665Z,35.68
2018-09-02T06:32:01.140Z,37.93
2018-09-02T06:34:31.480Z,51.07
2018-09-02T06:37:02.510Z,56.73
2018-09-02T06:39:33.713Z,19.75
2018-09-02T06:42:06.033Z,16.95
2018-09-02T06:44:38.531Z,17.83
2018-09-02T06:47:08.519Z,17.00
2018-09-02T06:49:40.387Z,34.03
2018-09-02T06:52:11.581Z,30.43
2018-09-02T06:54:42.692Z,17.00
2018-09-02T06:57:19.921Z,19.62
2018-09-02T06:59:57.634Z,19.63
2018-09-02T07:02:39.620Z,20.95
2018-09-02T07:10:25.908Z,21.67
2018-09-02T07:13:02.088Z,18.20
2018-09-02T07:15:55.041Z,41.30
2018-09-02T07:24:58.381Z,16.15
2018-09-02T07:31:26.020Z,16.17
2018-09-02T07:37:31.313Z,25.00
2018-09-02T07:40:03.488Z,21.80
2018-09-02T07:42:33.705Z,25.70
2018-09-02T07:45:13.628Z,40.97
2018-09-02T07:47:46.475Z,20.93
2018-09-02T07:50:17.650Z,15.73
2018-09-02T07:52:48.267Z,20.50
2018-09-02T07:55:18.871Z,51.63
2018-09-02T07:57:50.466Z,18.50
2018-09-02T08:00:22.251Z,17.57
2018-09-02T08:02:53.818Z,22.97
2018-09-02T08:05:24.623Z,15.30
2018-09-02T08:07:55.124Z,27.20
2018-09-02T08:10:26.080Z,13.27
2018-09-02T08:12:59.316Z,30.43
2018-09-02T08:15:30.198Z,26.37
2018-09-02T08:18:00.923Z,28.40
2018-09-02T08:20:31.278Z,21.30
2018-09-02T08:23:01.740Z,32.40
2018-09-02T08:25:32.380Z,28.40
2018-09-02T08:28:02.961Z,52.47
2018-09-02T08:30:33.077Z,26.03
2018-09-02T08:33:02.141Z,14.70
2018-09-02T08:35:33.862Z,25.53
2018-09-02T08:38:03.446Z,35.97
2018-09-02T08:40:36.442Z,27.97
2018-09-02T08:43:07.194Z,21.30
2018-09-02T08:45:39.731Z,16.00
2018-09-02T08:48:09.449Z,20.43
2018-09-02T08:50:39.158Z,37.67
2018-09-02T08:53:11.020Z,21.00
2018-09-02T08:55:43.409Z,38.30
2018-09-02T08:58:17.101Z,24.17
2018-09-02T09:00:46.143Z,38.53
2018-09-02T09:03:17.213Z,38.97
2018-09-02T09:05:51.674Z,21.50
2018-09-02T09:08:22.868Z,29.83
2018-09-02T09:10:54.305Z,27.10
2018-09-02T09:13:24.935Z,39.70
2018-09-02T09:15:56.221Z,33.53
2018-09-02T09:18:34.863Z,27.90
2018-09-02T09:21:04.934Z,35.27
2018-09-02T09:23:35.038Z,33.33
2018-09-02T09:26:05.089Z,32.50
2018-09-02T09:28:35.532Z,16.40
2018-09-02T09:31:04.741Z,21.03
2018-09-02T09:37:12.110Z,15.53
2018-09-02T09:39:42.961Z,19.07
2018-09-02T09:42:13.852Z,22.60
2018-09-02T09:44:46.584Z,22.15
2018-09-02T09:47:17.270Z,33.47
2018-09-02T09:49:47.646Z,28.23
2018-09-02T09:52:21.985Z,26.00
2018-09-02T09:54:51.935Z,34.60
2018-09-02T09:57:22.412Z,25.40
2018-09-02T09:59:52.707Z,27.60
2018-09-02T10:02:26.615Z,23.23
2018-09-02T10:05:00.303Z,24.77
2018-09-02T10:07:29.594Z,27.60
2018-09-02T10:10:07.299Z,22.30
2018-09-02T10:12:37.980Z,39.37
2018-09-02T10:15:08.280Z,28.87
2018-09-02T10:17:38.147Z,28.73
2018-09-02T10:20:07.585Z,18.27
2018-09-02T10:22:38.565Z,25.23
2018-09-02T10:25:08.777Z,24.97
2018-09-02T10:27:40.547Z,31.27
2018-09-02T10:30:10.796Z,17.93
2018-09-02T10:32:41.421Z,24.63
2018-09-02T10:35:12.610Z,20.07
2018-09-02T10:37:44.680Z,25.80
2018-09-02T10:40:16.632Z,20.07
2018-09-02T10:42:47.201Z,17.83
2018-09-02T10:45:17.874Z,24.12
2018-09-02T10:47:49.149Z,30.33
2018-09-02T10:50:19.300Z,24.37
2018-09-02T10:52:48.656Z,29.30
2018-09-02T10:55:21.323Z,30.67
2018-09-02T10:57:54.332Z,24.23
2018-09-02T11:00:23.460Z,19.67
2018-09-02T11:02:52.891Z,34.10
2018-09-02T11:05:22.415Z,25.37
2018-09-02T11:07:52.136Z,15.00
2018-09-02T11:10:21.301Z,16.70
2018-09-02T11:12:50.402Z,21.70
2018-09-02T11:15:20.641Z,17.50
2018-09-02T11:17:50.524Z,18.60
2018-09-02T11:20:19.937Z,25.03
2018-09-02T11:22:50.590Z,17.13
2018-09-02T11:25:22.305Z,21.97
2018-09-02T11:27:52.020Z,27.00
2018-09-02T11:30:21.743Z,31.40
2018-09-02T11:32:51.594Z,35.63
2018-09-02T11:35:23.306Z,23.43
2018-09-02T11:37:53.848Z,16.60
2018-09-02T11:40:24.913Z,32.20
2018-09-02T11:42:57.620Z,18.93
2018-09-02T11:45:30.969Z,25.07
2018-09-02T11:48:03.324Z,15.70
2018-09-02T11:50:37.029Z,27.93
2018-09-02T11:53:07.343Z,22.80
2018-09-02T11:55:37.927Z,26.03
2018-09-02T11:58:07.330Z,24.13
2018-09-02T12:00:37.474Z,17.30
2018-09-02T12:03:07.151Z,13.30
2018-09-02T12:05:37.325Z,20.10
2018-09-02T12:08:07.303Z,14.85
2018-09-02T12:10:36.636Z,13.70
2018-09-02T12:13:06.627Z,13.50
2018-09-02T12:15:36.494Z,14.10
2018-09-02T12:18:06.442Z,15.20
2018-09-02T12:20:36.458Z,14.00
2018-09-02T12:23:06.382Z,14.70
2018-09-02T12:25:35.764Z,14.07
2018-09-02T12:28:05.040Z,16.93
2018-09-02T12:30:33.657Z,13.20
2018-09-02T12:33:03.150Z,14.00
2018-09-02T12:35:31.824Z,13.40
2018-09-02T12:38:04.579Z,13.80
2018-09-02T12:40:35.081Z,13.23
2018-09-02T12:43:06.132Z,13.20
2018-09-02T12:45:36.671Z,12.07
2018-09-02T12:48:12.315Z,13.37
2018-09-02T12:50:41.852Z,12.80
2018-09-02T12:53:11.995Z,12.85
2018-09-02T12:55:41.865Z,12.50
2018-09-02T12:58:12.742Z,15.50
2018-09-02T13:00:42.536Z,14.20
2018-09-02T13:03:11.841Z,12.95
2018-09-02T13:05:41.199Z,13.40
2018-09-02T13:08:15.582Z,14.20
2018-09-02T13:10:45.238Z,16.20
2018-09-02T13:13:15.037Z,13.07
2018-09-02T13:15:46.105Z,14.87
2018-09-02T13:18:15.705Z,15.10
2018-09-02T13:20:45.509Z,12.40
2018-09-02T13:23:19.366Z,13.63
2018-09-02T13:25:50.310Z,13.53
2018-09-02T13:28:20.431Z,17.90
2018-09-02T13:30:55.625Z,17.47
2018-09-02T13:33:27.205Z,13.77
2018-09-02T13:35:56.837Z,13.70
2018-09-02T13:38:27.120Z,13.77
2018-09-02T13:40:59.237Z,14.27
2018-09-02T13:43:28.571Z,16.73
2018-09-02T13:45:58.676Z,18.00
2018-09-02T13:48:32.495Z,13.67
2018-09-02T13:51:02.507Z,15.00
2018-09-02T13:53:32.832Z,17.85
2018-09-02T13:56:02.114Z,14.97
2018-09-02T13:58:33.352Z,15.80
2018-09-02T14:01:03.012Z,16.63
2018-09-02T14:03:33.483Z,14.47
2018-09-02T14:06:04.481Z,15.17
2018-09-02T14:08:33.437Z,13.90
2018-09-02T14:11:03.274Z,16.27
2018-09-02T14:13:32.825Z,15.90
2018-09-02T14:16:02.052Z,15.90
2018-09-02T14:18:33.133Z,14.90
2018-09-02T14:21:02.309Z,17.77
2018-09-02T14:23:32.064Z,15.88
2018-09-02T14:26:02.217Z,16.93
2018-09-02T14:28:39.028Z,17.33
2018-09-02T14:31:10.666Z,18.60
2018-09-02T14:33:40.955Z,17.50
2018-09-02T14:36:11.091Z,20.33
2018-09-02T14:38:42.277Z,17.50
2018-09-02T14:41:12.123Z,16.27
2018-09-02T14:43:42.283Z,17.80
2018-09-02T14:46:12.107Z,19.20
2018-09-02T14:48:43.405Z,20.93
2018-09-02T14:51:17.540Z,16.82
2018-09-02T14:53:47.820Z,17.30
2018-09-02T14:56:17.903Z,18.50
2018-09-02T14:58:49.653Z,16.70
2018-09-02T15:01:24.394Z,17.20
2018-09-02T15:03:56.067Z,18.40
2018-09-02T15:06:25.699Z,19.17
2018-09-02T15:08:55.620Z,22.07
2018-09-02T15:11:25.309Z,20.83
2018-09-02T15:13:55.134Z,21.07
2018-09-02T15:16:24.589Z,19.77
2018-09-02T15:18:54.752Z,19.60
2018-09-02T15:21:24.986Z,17.30
2018-09-02T15:23:55.856Z,17.70
2018-09-02T15:26:26.361Z,17.83
2018-09-02T15:28:59.104Z,17.30
2018-09-02T15:31:29.248Z,18.10
2018-09-02T15:34:00.079Z,18.40
2018-09-02T15:36:30.582Z,17.30
2018-09-02T15:39:00.278Z,16.77
2018-09-02T15:41:32.080Z,19.90
2018-09-02T15:44:02.762Z,17.23
2018-09-02T15:46:32.056Z,17.30
2018-09-02T15:49:02.165Z,20.73
2018-09-02T15:51:33.335Z,16.97
2018-09-02T15:54:04.222Z,18.10
2018-09-02T15:56:36.359Z,16.17
2018-09-02T15:59:07.076Z,21.13
2018-09-02T16:01:40.284Z,17.80
2018-09-02T16:04:15.789Z,17.20
2018-09-02T16:06:51.839Z,17.23
2018-09-02T16:09:22.702Z,18.43
2018-09-02T16:11:56.738Z,19.53
2018-09-02T16:14:27.906Z,18.02
2018-09-02T16:16:57.603Z,18.60
2018-09-02T16:19:26.962Z,15.90
2018-09-02T16:21:56.991Z,22.80
2018-09-02T16:24:26.172Z,22.43
2018-09-02T16:26:56.785Z,20.30
2018-09-02T16:29:26.527Z,18.20
2018-09-02T16:31:57.110Z,18.67
2018-09-02T16:34:28.375Z,16.30
2018-09-02T16:37:00.435Z,18.97
2018-09-02T16:39:30.883Z,17.92
2018-09-02T16:42:02.544Z,16.87
2018-09-02T16:44:33.672Z,18.60
2018-09-02T16:47:14.294Z,17.60
2018-09-02T16:49:44.034Z,18.90
2018-09-02T16:52:19.065Z,17.20
2018-09-02T16:54:49.699Z,16.57
2018-09-02T16:57:20.322Z,16.30
2018-09-02T16:59:51.489Z,18.63
2018-09-02T17:02:21.337Z,18.93
2018-09-02T17:04:55.280Z,16.25
2018-09-02T17:07:29.557Z,19.03
2018-09-02T17:10:00.385Z,17.40
2018-09-02T17:12:29.366Z,18.53
2018-09-02T17:14:58.414Z,22.13
2018-09-02T17:17:27.491Z,21.97
2018-09-02T17:19:58.685Z,17.70
2018-09-02T17:22:30.552Z,20.70
2018-09-02T17:25:00.514Z,18.73
2018-09-02T17:27:31.194Z,20.57
2018-09-02T17:30:02.032Z,17.37
2018-09-02T17:32:33.004Z,19.40
2018-09-02T17:35:02.732Z,19.90
2018-09-02T17:37:33.157Z,20.23
2018-09-02T17:40:02.805Z,24.50
2018-09-02T17:42:33.015Z,22.40
2018-09-02T17:45:03.434Z,22.23
2018-09-02T17:47:33.109Z,23.50
2018-09-02T17:50:04.940Z,19.83
2018-09-02T17:52:34.960Z,21.40
2018-09-02T17:55:08.872Z,19.30
2018-09-02T17:57:40.953Z,21.80
2018-09-02T18:00:12.264Z,22.40
2018-09-02T18:02:41.271Z,21.37
2018-09-02T18:05:10.504Z,21.87
2018-09-02T18:07:40.969Z,24.97
2018-09-02T18:10:11.329Z,22.77
2018-09-02T18:12:42.762Z,21.90
2018-09-02T18:15:32.241Z,22.77
2018-09-02T18:18:23.614Z,23.53
2018-09-02T18:20:54.674Z,24.53
2018-09-02T18:23:27.701Z,23.27
2018-09-02T18:28:52.682Z,25.10
2018-09-02T18:31:22.145Z,23.20
2018-09-02T18:33:51.110Z,24.20
2018-09-02T18:36:20.059Z,24.57
2018-09-02T18:38:49.139Z,31.42
2018-09-02T18:41:18.361Z,24.53
2018-09-02T18:43:49.901Z,28.37
2018-09-02T18:46:19.038Z,25.83
2018-09-02T18:48:47.828Z,23.47
2018-09-02T18:51:16.520Z,23.00
2018-09-02T18:53:45.415Z,21.77
2018-09-02T18:56:14.814Z,27.43
2018-09-02T18:58:44.198Z,22.27
2018-09-02T19:01:13.549Z,20.10
2018-09-02T19:03:42.643Z,23.80
2018-09-02T19:06:11.468Z,27.87
2018-09-02T19:08:40.828Z,22.53
2018-09-02T19:11:09.958Z,22.17
2018-09-02T19:13:38.902Z,23.07
2018-09-02T19:16:07.826Z,21.33
2018-09-02T19:18:36.695Z,21.30
2018-09-02T19:21:05.751Z,26.30
2018-09-02T19:23:34.866Z,24.18
2018-09-02T19:26:04.448Z,20.93
2018-09-02T19:28:34.963Z,27.87
2018-09-02T19:31:04.584Z,22.73
2018-09-02T19:33:35.919Z,26.40
2018-09-02T19:36:05.381Z,22.07
2018-09-02T19:38:34.794Z,23.13
2018-09-02T19:41:03.944Z,23.97
2018-09-02T19:43:32.527Z,26.33
2018-09-02T19:46:01.236Z,24.73
2018-09-02T19:48:30.140Z,26.67
2018-09-02T19:50:59.385Z,26.17
2018-09-02T19:53:28.208Z,24.10
2018-09-02T19:55:57.249Z,23.18
2018-09-02T19:58:26.357Z,29.17
2018-09-02T20:00:55.075Z,23.73
2018-09-02T20:03:24.082Z,24.83
2018-09-02T20:05:53.083Z,26.57
2018-09-02T20:08:21.824Z,27.63
2018-09-02T20:10:50.816Z,25.00
2018-09-02T20:13:19.946Z,25.77
2018-09-02T20:15:48.851Z,30.70
2018-09-02T20:18:17.842Z,25.12
2018-09-02T20:20:46.495Z,25.87
2018-09-02T20:23:14.964Z,26.37
2018-09-02T20:25:43.710Z,28.30
2018-09-02T20:28:13.215Z,25.63
2018-09-02T20:30:43.731Z,25.90
2018-09-02T20:33:13.008Z,25.93
2018-09-02T20:35:42.019Z,27.73
2018-09-02T20:38:10.954Z,23.17
2018-09-02T20:40:40.675Z,24.30
2018-09-02T20:43:10.296Z,23.60
2018-09-02T20:45:39.074Z,23.50
2018-09-02T20:48:09.244Z,26.00
2018-09-02T20:50:38.095Z,24.27
2018-09-02T20:53:07.662Z,24.73
2018-09-02T20:55:36.830Z,24.50
2018-09-02T20:58:05.903Z,25.43
2018-09-02T21:00:35.013Z,23.77
2018-09-02T21:03:03.969Z,25.08
2018-09-02T21:05:33.068Z,23.03
2018-09-02T21:08:02.175Z,25.10
2018-09-02T21:10:31.030Z,24.73
2018-09-02T21:13:00.127Z,25.87
2018-09-02T21:15:29.001Z,24.87
2018-09-02T21:17:57.913Z,23.73
2018-09-02T21:20:26.610Z,26.20
2018-09-02T21:22:55.590Z,29.87
2018-09-02T21:25:24.342Z,25.77
2018-09-02T21:27:53.529Z,26.80
2018-09-02T21:30:25.231Z,26.90
2018-09-02T21:32:54.750Z,27.85
2018-09-02T21:35:24.034Z,24.23
2018-09-02T21:37:53.090Z,27.40
2018-09-02T21:40:21.969Z,27.00
2018-09-02T21:42:51.052Z,29.30
2018-09-02T21:45:19.900Z,24.47
2018-09-02T21:47:49.192Z,25.35
2018-09-02T21:50:18.079Z,31.17
2018-09-02T21:52:47.052Z,33.97
2018-09-02T21:55:16.506Z,27.23
2018-09-02T21:57:45.755Z,26.70
2018-09-02T22:00:16.601Z,27.77
2018-09-02T22:02:45.543Z,30.17
2018-09-02T22:05:15.635Z,33.50
2018-09-02T22:07:45.945Z,31.53
2018-09-02T22:10:15.012Z,32.33
2018-09-02T22:12:43.824Z,35.20
2018-09-02T22:15:12.295Z,33.70
2018-09-02T22:17:41.061Z,37.17
2018-09-02T22:20:09.847Z,32.13
2018-09-02T22:22:38.516Z,31.83
2018-09-02T22:25:07.972Z,34.50
2018-09-02T22:27:36.881Z,36.83
2018-09-02T22:30:06.674Z,34.60
2018-09-02T22:32:35.675Z,33.77
2018-09-02T22:35:04.636Z,34.77
2018-09-02T22:37:33.605Z,35.03
2018-09-02T22:40:02.465Z,36.73
2018-09-02T22:42:31.328Z,35.97
2018-09-02T22:45:00.016Z,36.73
2018-09-02T22:47:28.914Z,36.30
2018-09-02T22:49:57.558Z,35.83
2018-09-02T22:52:26.575Z,33.10
2018-09-02T22:54:55.268Z,33.73
2018-09-02T22:57:26.737Z,36.80
2018-09-02T22:59:55.416Z,36.57
2018-09-02T23:02:23.921Z,32.50
2018-09-02T23:04:52.808Z,40.30
2018-09-02T23:07:21.680Z,34.57
2018-09-02T23:09:50.680Z,34.13
2018-09-02T23:12:19.850Z,34.00
2018-09-02T23:14:48.357Z,34.90
2018-09-02T23:17:17.037Z,37.78
2018-09-02T23:19:45.810Z,36.17
2018-09-02T23:22:14.290Z,41.80
2018-09-02T23:24:42.900Z,36.33
2018-09-02T23:27:11.325Z,42.13
2018-09-02T23:29:40.072Z,38.87
2018-09-02T23:32:08.807Z,38.33
2018-09-02T23:34:38.005Z,32.63
2018-09-02T23:37:06.722Z,38.77
2018-09-02T23:39:35.531Z,34.45
2018-09-02T23:42:04.259Z,36.50
2018-09-02T23:44:33.150Z,33.60
2018-09-02T23:47:02.174Z,36.67
2018-09-02T23:49:30.973Z,35.63
2018-09-02T23:51:59.760Z,40.00
2018-09-02T23:54:28.540Z,37.67
2018-09-02T23:56:57.750Z,40.57
2018-09-02T23:59:26.716Z,40.90
